Time;durP1;ratioP1;P1;durP2;ratioP2;P2;SDS_P1;SDS_P2;PMS_P1;PMS_P2;Temp;Humidity;BMP_temperature;BMP_pressure;BME280_temperature;BME280_humidity;BME280_pressure;Samples;Min_cycle;Max_cycle;Signal;HPM_P1;HPM_P2
2021/05/13 00:00:57;;;;;;;9.30;7.30;;;10.50;99.90;;;;;;5066364;28;20657;-92
2021/05/13 00:03:24;;;;;;;7.07;6.40;;;10.40;99.90;;;;;;5061941;28;20732;-92
2021/05/13 00:05:50;;;;;;;5.80;5.30;;;10.40;99.90;;;;;;5061676;28;20659;-93
2021/05/13 00:08:17;;;;;;;7.77;5.70;;;10.50;99.90;;;;;;5062066;28;20661;-92
2021/05/13 00:10:44;;;;;;;6.93;6.27;;;10.40;99.90;;;;;;5064905;28;20656;-92
2021/05/13 00:13:10;;;;;;;6.93;6.27;;;10.40;99.90;;;;;;5083036;28;20628;-93
2021/05/13 00:15:38;;;;;;;7.03;6.43;;;10.40;99.90;;;;;;5089365;28;20632;-92
2021/05/13 00:18:06;;;;;;;9.77;6.43;;;10.40;99.90;;;;;;5069179;28;20649;-92
2021/05/13 00:20:35;;;;;;;8.50;6.47;;;10.40;99.90;;;;;;5067900;28;20659;-91
2021/05/13 00:23:02;;;;;;;8.63;6.87;;;10.50;99.90;;;;;;5062377;28;21212;-92
2021/05/13 00:25:32;;;;;;;7.63;6.70;;;10.40;99.90;;;;;;5064660;28;20637;-93
2021/05/13 00:27:59;;;;;;;6.93;6.23;;;10.40;99.90;;;;;;5061750;28;20986;-93
2021/05/13 00:30:25;;;;;;;8.33;6.80;;;10.30;99.90;;;;;;5061720;28;20672;-92
2021/05/13 00:32:53;;;;;;;6.47;5.83;;;10.30;99.90;;;;;;5062859;28;21073;-94
2021/05/13 00:35:23;;;;;;;12.00;6.33;;;10.30;99.90;;;;;;5061770;28;21171;-94
2021/05/13 00:37:52;;;;;;;7.17;5.87;;;10.20;99.90;;;;;;5067300;28;20643;-94
2021/05/13 00:40:20;;;;;;;10.50;6.10;;;10.20;99.90;;;;;;5066451;28;20739;-94
2021/05/13 00:42:49;;;;;;;6.57;6.03;;;10.20;99.90;;;;;;5068398;28;21158;-93
2021/05/13 00:45:21;;;;;;;7.50;5.97;;;10.20;99.90;;;;;;5063442;28;20708;-92
2021/05/13 00:48:01;;;;;;;6.63;6.03;;;10.10;99.90;;;;;;5064941;28;21080;-92
2021/05/13 00:50:28;;;;;;;8.77;5.83;;;10.20;99.90;;;;;;5064781;28;20648;-93
2021/05/13 00:52:57;;;;;;;8.40;6.20;;;10.10;99.90;;;;;;5063527;28;20624;-94
2021/05/13 00:55:25;;;;;;;7.10;6.40;;;10.10;99.90;;;;;;5061008;28;20624;-93
2021/05/13 00:57:54;;;;;;;6.00;5.50;;;10.10;99.90;;;;;;5060738;28;20609;-92
2021/05/13 01:00:42;;;;;;;9.13;6.63;;;10.10;99.90;;;;;;5058189;28;20659;-94
2021/05/13 01:03:09;;;;;;;7.80;7.17;;;10.10;99.90;;;;;;5064872;28;20648;-93
2021/05/13 01:05:37;;;;;;;10.17;6.77;;;10.10;99.90;;;;;;5066481;28;20626;-92
2021/05/13 01:08:05;;;;;;;9.13;7.50;;;10.10;99.90;;;;;;5063981;28;21416;-92
2021/05/13 01:10:34;;;;;;;7.97;7.17;;;10.10;99.90;;;;;;5063713;28;20675;-92
2021/05/13 01:13:09;;;;;;;7.57;6.97;;;10.20;99.90;;;;;;5069640;28;20711;-94
2021/05/13 01:15:54;;;;;;;8.27;7.47;;;10.20;99.90;;;;;;5074166;28;20650;-95
2021/05/13 01:18:22;;;;;;;8.20;7.40;;;10.30;99.90;;;;;;5062376;28;20876;-95
2021/05/13 01:20:50;;;;;;;8.57;6.50;;;10.20;99.90;;;;;;5068758;28;20683;-94
2021/05/13 01:23:25;;;;;;;8.27;7.47;;;10.20;99.90;;;;;;5066546;28;20625;-95
2021/05/13 01:25:54;;;;;;;8.83;7.93;;;10.20;99.90;;;;;;5066553;28;20651;-94
2021/05/13 01:28:24;;;;;;;8.40;7.70;;;10.20;99.90;;;;;;5065627;28;20704;-93
2021/05/13 01:30:52;;;;;;;11.27;8.73;;;10.30;99.90;;;;;;5067082;28;20668;-95
2021/05/13 01:33:21;;;;;;;13.73;8.00;;;10.30;99.90;;;;;;5074878;28;20610;-94
2021/05/13 01:35:48;;;;;;;7.83;7.13;;;10.30;99.90;;;;;;5065977;28;20734;-94
2021/05/13 01:38:18;;;;;;;8.40;7.47;;;10.30;99.90;;;;;;5069478;28;20701;-94
2021/05/13 01:40:51;;;;;;;7.67;7.10;;;10.20;99.90;;;;;;5069200;28;21006;-94
2021/05/13 01:43:18;;;;;;;7.63;7.03;;;10.20;99.90;;;;;;5071412;28;20705;-94
2021/05/13 01:45:46;;;;;;;8.57;7.40;;;10.20;99.90;;;;;;5064635;28;20641;-94
2021/05/13 01:48:12;;;;;;;10.20;6.80;;;10.20;99.90;;;;;;5066706;28;20653;-94
2021/05/13 01:50:39;;;;;;;7.97;7.17;;;10.20;99.90;;;;;;5062903;28;21021;-94
2021/05/13 01:53:07;;;;;;;7.67;6.97;;;10.20;99.90;;;;;;5079292;28;20617;-92
2021/05/13 01:55:35;;;;;;;10.20;7.83;;;10.10;99.90;;;;;;5062889;28;21052;-94
2021/05/13 01:58:06;;;;;;;10.50;7.40;;;10.10;99.90;;;;;;5068074;28;20687;-94
2021/05/13 02:00:35;;;;;;;7.60;6.90;;;10.10;99.90;;;;;;5069620;28;21261;-94
2021/05/13 02:03:01;;;;;;;9.63;7.93;;;10.00;99.90;;;;;;5077072;28;20704;-94
2021/05/13 02:05:30;;;;;;;8.37;7.60;;;10.00;99.90;;;;;;5072725;28;20696;-94
2021/05/13 02:07:58;;;;;;;7.97;7.13;;;10.00;99.90;;;;;;5070249;28;20649;-94
2021/05/13 02:10:25;;;;;;;7.33;6.83;;;10.10;99.90;;;;;;5063609;28;20665;-92
2021/05/13 02:12:51;;;;;;;8.50;7.20;;;10.00;99.90;;;;;;5066863;28;21077;-93
2021/05/13 02:15:21;;;;;;;9.07;7.33;;;10.00;99.90;;;;;;5063824;28;20639;-94
2021/05/13 02:17:48;;;;;;;8.80;7.93;;;9.90;99.90;;;;;;5066320;28;21220;-93
2021/05/13 02:20:16;;;;;;;8.33;6.93;;;9.90;99.90;;;;;;5067776;28;21249;-93
2021/05/13 02:22:43;;;;;;;11.50;6.93;;;9.90;99.90;;;;;;5071715;28;20617;-92
2021/05/13 02:25:11;;;;;;;7.80;7.10;;;9.90;99.90;;;;;;5088330;28;20601;-92
2021/05/13 02:27:41;;;;;;;7.70;7.00;;;9.80;99.90;;;;;;5079459;28;21118;-93
2021/05/13 02:30:09;;;;;;;8.73;7.53;;;9.70;99.90;;;;;;5080085;28;20631;-94
2021/05/13 02:32:36;;;;;;;8.87;8.00;;;9.80;99.90;;;;;;5082710;28;20618;-94
2021/05/13 02:35:03;;;;;;;8.10;7.40;;;9.80;99.90;;;;;;5071281;28;20637;-94
2021/05/13 02:37:30;;;;;;;9.13;8.10;;;9.80;99.90;;;;;;5064450;28;20644;-93
2021/05/13 02:39:56;;;;;;;8.40;7.60;;;9.80;99.90;;;;;;5079682;28;20798;-92
2021/05/13 02:42:23;;;;;;;8.13;7.30;;;9.80;99.90;;;;;;5082621;28;20606;-92
2021/05/13 02:44:52;;;;;;;8.37;7.47;;;9.80;99.90;;;;;;5079193;28;20744;-92
2021/05/13 02:47:18;;;;;;;7.63;6.80;;;9.80;99.90;;;;;;5076317;28;20641;-93
2021/05/13 02:49:53;;;;;;;8.63;7.83;;;9.80;99.90;;;;;;5091282;28;20737;-93
2021/05/13 02:52:20;;;;;;;10.20;8.23;;;9.80;99.90;;;;;;5076939;28;20659;-93
2021/05/13 02:54:46;;;;;;;9.20;8.40;;;9.80;99.90;;;;;;5065777;28;21055;-90
2021/05/13 02:57:12;;;;;;;11.20;10.10;;;9.80;99.90;;;;;;5077513;28;20641;-91
2021/05/13 02:59:44;;;;;;;8.70;7.87;;;9.90;99.90;;;;;;5083738;28;20649;-91
2021/05/13 03:02:11;;;;;;;10.17;9.17;;;9.90;99.90;;;;;;5084527;28;20632;-91
2021/05/13 03:04:37;;;;;;;10.30;8.50;;;9.90;99.90;;;;;;5092166;28;20656;-91
2021/05/13 03:07:06;;;;;;;9.10;8.40;;;9.90;99.90;;;;;;5087933;28;20657;-91
2021/05/13 03:09:34;;;;;;;9.60;7.27;;;9.90;99.90;;;;;;5090463;28;20641;-91
2021/05/13 03:12:04;;;;;;;9.33;8.43;;;10.00;99.90;;;;;;5080900;28;20694;-90
2021/05/13 03:14:31;;;;;;;8.47;7.73;;;10.00;99.90;;;;;;5074711;28;21318;-91
2021/05/13 03:16:57;;;;;;;8.97;8.10;;;10.00;99.90;;;;;;5069802;28;20633;-91
2021/05/13 03:19:28;;;;;;;10.57;7.27;;;10.00;99.90;;;;;;5068967;28;20618;-90
2021/05/13 03:21:57;;;;;;;8.67;7.90;;;10.00;99.90;;;;;;5072638;28;20636;-91
2021/05/13 03:24:31;;;;;;;8.87;7.97;;;10.00;99.90;;;;;;5073506;28;20653;-91
2021/05/13 03:27:12;;;;;;;8.90;8.10;;;10.10;99.90;;;;;;5081014;28;20625;-91
2021/05/13 03:29:42;;;;;;;10.00;9.10;;;10.00;99.90;;;;;;5072317;28;20671;-90
2021/05/13 03:32:09;;;;;;;10.40;8.90;;;9.90;99.90;;;;;;5080503;28;20820;-94
2021/05/13 03:34:40;;;;;;;9.83;8.93;;;9.80;99.90;;;;;;5076507;28;20659;-92
2021/05/13 03:37:13;;;;;;;11.80;9.67;;;9.90;99.90;;;;;;5078897;28;20671;-93
2021/05/13 03:39:41;;;;;;;13.27;11.87;;;10.00;99.90;;;;;;5076227;28;20649;-94
2021/05/13 03:42:08;;;;;;;12.10;11.07;;;9.90;99.90;;;;;;5072928;28;20632;-93
2021/05/13 03:44:44;;;;;;;11.97;10.87;;;9.90;99.90;;;;;;5073725;28;20642;-93
2021/05/13 03:47:13;;;;;;;13.07;12.00;;;9.80;99.90;;;;;;5074053;28;20648;-94
2021/05/13 03:49:41;;;;;;;14.83;13.43;;;10.00;99.90;;;;;;5076749;28;20652;-93
2021/05/13 03:52:08;;;;;;;13.30;11.97;;;9.90;99.90;;;;;;5066853;28;20636;-91
2021/05/13 03:54:41;;;;;;;13.50;12.50;;;9.90;99.90;;;;;;5069105;28;20657;-90
2021/05/13 03:57:08;;;;;;;15.33;13.67;;;9.90;99.90;;;;;;5071693;28;20694;-91
2021/05/13 03:59:37;;;;;;;14.70;13.33;;;9.90;99.90;;;;;;5074605;28;21244;-91
2021/05/13 04:02:11;;;;;;;14.23;12.93;;;9.90;99.90;;;;;;5073817;28;20640;-92
2021/05/13 04:04:38;;;;;;;17.37;15.93;;;9.90;99.90;;;;;;5067049;28;20637;-89
2021/05/13 04:07:06;;;;;;;18.40;16.77;;;10.00;99.90;;;;;;5066974;28;20644;-89
2021/05/13 04:09:33;;;;;;;19.40;17.40;;;10.00;99.90;;;;;;5067409;28;20725;-90
2021/05/13 04:12:01;;;;;;;18.23;16.70;;;10.00;99.90;;;;;;5066563;28;21063;-89
2021/05/13 04:14:28;;;;;;;17.27;15.97;;;10.10;99.90;;;;;;5068240;28;21022;-90
2021/05/13 04:16:55;;;;;;;18.07;16.63;;;10.10;99.90;;;;;;5063489;28;20629;-92
2021/05/13 04:19:23;;;;;;;18.97;17.27;;;10.10;99.90;;;;;;5065357;28;20633;-89
2021/05/13 04:21:55;;;;;;;18.80;17.30;;;10.10;99.90;;;;;;5067623;28;20689;-90
2021/05/13 04:24:21;;;;;;;18.40;16.80;;;10.10;99.90;;;;;;5065297;28;20594;-91
2021/05/13 04:26:49;;;;;;;17.10;15.70;;;10.00;99.90;;;;;;5065230;28;21262;-91
2021/05/13 04:29:17;;;;;;;20.70;16.10;;;10.10;99.90;;;;;;5066819;28;20708;-91
2021/05/13 04:31:45;;;;;;;17.47;16.07;;;10.10;99.90;;;;;;5064164;28;20605;-91
2021/05/13 04:34:11;;;;;;;18.73;16.93;;;10.10;99.90;;;;;;5069965;28;20779;-91
2021/05/13 04:36:38;;;;;;;19.53;17.60;;;10.10;99.90;;;;;;5066205;28;20633;-89
2021/05/13 04:39:05;;;;;;;17.40;15.70;;;10.20;99.90;;;;;;5065445;28;20670;-90
2021/05/13 04:41:34;;;;;;;18.20;16.63;;;10.20;99.90;;;;;;5064818;28;20676;-90
2021/05/13 04:44:01;;;;;;;17.20;15.70;;;10.20;99.90;;;;;;5065088;28;20648;-91
2021/05/13 04:46:31;;;;;;;16.60;15.30;;;10.30;99.90;;;;;;5061126;28;20625;-90
2021/05/13 04:49:15;;;;;;;16.97;15.57;;;10.30;99.90;;;;;;5061914;28;20692;-90
2021/05/13 04:51:46;;;;;;;15.60;14.37;;;10.30;99.90;;;;;;5071813;28;20640;-91
2021/05/13 04:54:15;;;;;;;14.30;13.10;;;10.40;99.90;;;;;;5066879;28;20629;-90
2021/05/13 04:56:42;;;;;;;15.73;14.43;;;10.50;99.90;;;;;;5064857;28;20697;-90
2021/05/13 04:59:09;;;;;;;14.70;13.27;;;10.50;99.90;;;;;;5063203;28;20632;-91
2021/05/13 05:01:36;;;;;;;13.47;12.27;;;10.60;99.90;;;;;;5064328;28;20648;-92
2021/05/13 05:04:04;;;;;;;13.47;12.30;;;10.60;99.90;;;;;;5067651;28;20633;-92
2021/05/13 05:06:31;;;;;;;14.40;12.90;;;10.60;99.90;;;;;;5058805;28;20610;-90
2021/05/13 05:08:58;;;;;;;14.70;13.30;;;10.70;99.90;;;;;;5062776;28;20657;-90
2021/05/13 05:11:25;;;;;;;11.80;10.83;;;10.70;99.90;;;;;;5065579;28;20664;-91
2021/05/13 05:13:52;;;;;;;9.80;9.10;;;10.80;99.90;;;;;;5067561;28;21157;-90
2021/05/13 05:16:20;;;;;;;9.80;8.90;;;10.90;99.90;;;;;;5066100;28;20728;-91
2021/05/13 05:18:48;;;;;;;8.87;8.10;;;10.90;99.90;;;;;;5064487;28;20703;-91
2021/05/13 05:21:17;;;;;;;11.87;8.30;;;10.90;99.90;;;;;;5068501;28;20640;-92
2021/05/13 05:23:44;;;;;;;8.40;7.60;;;10.90;99.90;;;;;;5066349;28;20629;-91
2021/05/13 05:26:11;;;;;;;9.30;8.50;;;10.90;99.90;;;;;;5071999;28;20713;-93
2021/05/13 05:28:37;;;;;;;9.13;8.10;;;11.00;99.90;;;;;;5068817;28;20661;-94
2021/05/13 05:31:08;;;;;;;8.07;7.47;;;11.10;99.90;;;;;;5067410;28;20811;-93
2021/05/13 05:33:39;;;;;;;8.13;7.40;;;10.90;99.90;;;;;;5066989;28;20664;-94
2021/05/13 05:36:07;;;;;;;8.63;7.73;;;10.90;99.90;;;;;;5065416;28;20681;-93
2021/05/13 05:41:32;;;;;;;8.20;7.17;;;10.80;99.90;;;;;;5059523;28;21004;-89
2021/05/13 05:43:59;;;;;;;8.97;8.07;;;10.90;99.90;;;;;;5067624;28;20635;-87
2021/05/13 05:46:26;;;;;;;9.10;8.20;;;11.00;99.90;;;;;;5061147;28;20659;-89
2021/05/13 05:48:53;;;;;;;8.17;7.40;;;11.10;99.90;;;;;;5063465;28;20656;-88
2021/05/13 05:51:21;;;;;;;7.80;7.10;;;11.10;99.90;;;;;;5061518;28;20684;-89
2021/05/13 05:53:48;;;;;;;7.00;6.30;;;11.20;99.90;;;;;;5065588;28;20667;-88
2021/05/13 05:56:14;;;;;;;9.90;7.57;;;11.30;99.90;;;;;;5066644;28;20631;-87
2021/05/13 05:58:43;;;;;;;8.93;6.93;;;11.40;99.90;;;;;;5064774;28;20633;-88
2021/05/13 06:01:11;;;;;;;7.90;7.23;;;11.40;99.90;;;;;;5058665;28;20716;-87
2021/05/13 06:03:38;;;;;;;7.77;6.77;;;11.30;99.90;;;;;;5064642;28;20614;-87
2021/05/13 06:06:06;;;;;;;6.47;5.87;;;11.40;99.90;;;;;;5071886;28;20632;-87
2021/05/13 06:08:34;;;;;;;7.97;6.83;;;11.60;99.90;;;;;;5066415;28;20675;-87
2021/05/13 06:11:02;;;;;;;7.93;6.97;;;11.70;99.90;;;;;;5075963;28;20661;-87
2021/05/13 06:13:28;;;;;;;7.47;6.87;;;11.80;99.90;;;;;;5077912;28;20609;-88
2021/05/13 06:15:55;;;;;;;7.90;7.10;;;11.80;99.90;;;;;;5083230;28;21261;-87
2021/05/13 06:18:21;;;;;;;7.23;6.60;;;11.90;99.90;;;;;;5081138;28;20618;-87
2021/05/13 06:20:47;;;;;;;9.20;6.50;;;12.00;99.90;;;;;;5089592;28;20637;-88
2021/05/13 06:23:15;;;;;;;8.40;7.10;;;12.00;99.90;;;;;;5088231;28;20617;-86
2021/05/13 06:25:43;;;;;;;8.23;7.30;;;12.00;99.90;;;;;;5080075;28;20610;-87
2021/05/13 06:28:09;;;;;;;9.10;7.13;;;12.10;99.90;;;;;;5083247;28;20714;-88
2021/05/13 06:30:36;;;;;;;7.00;6.13;;;12.20;99.90;;;;;;5086267;28;20653;-89
2021/05/13 06:33:02;;;;;;;8.57;6.70;;;12.40;99.90;;;;;;5088293;28;20621;-87
2021/05/13 06:35:28;;;;;;;7.27;6.67;;;12.50;99.90;;;;;;5078210;28;20604;-88
2021/05/13 06:37:55;;;;;;;8.63;6.60;;;12.50;99.90;;;;;;5079546;28;20981;-88
2021/05/13 06:40:21;;;;;;;8.83;7.10;;;12.50;99.90;;;;;;5063438;28;21297;-87
2021/05/13 06:42:49;;;;;;;6.70;6.00;;;12.60;99.90;;;;;;5068166;28;20700;-87
2021/05/13 06:45:16;;;;;;;7.53;6.33;;;12.80;99.90;;;;;;5074546;28;20636;-88
2021/05/13 06:47:43;;;;;;;7.10;6.40;;;13.00;99.90;;;;;;5081499;28;20676;-88
2021/05/13 06:50:10;;;;;;;8.87;6.37;;;13.20;99.90;;;;;;5067922;28;20661;-88
2021/05/13 06:52:37;;;;;;;7.33;6.03;;;13.30;99.90;;;;;;5068538;28;21209;-88
2021/05/13 06:55:04;;;;;;;8.03;5.73;;;13.40;99.90;;;;;;5063076;28;20629;-87
2021/05/13 06:57:31;;;;;;;6.23;5.63;;;13.50;99.90;;;;;;5069943;28;20658;-89
2021/05/13 06:59:58;;;;;;;6.57;6.03;;;13.60;99.90;;;;;;5064153;28;20661;-86
2021/05/13 07:02:25;;;;;;;7.23;5.80;;;13.60;99.90;;;;;;5072789;28;20622;-87
2021/05/13 07:04:53;;;;;;;7.67;5.87;;;13.50;99.90;;;;;;5068783;28;20628;-87
2021/05/13 07:07:20;;;;;;;9.37;5.10;;;13.60;99.90;;;;;;5068360;28;20629;-86
2021/05/13 07:09:46;;;;;;;5.67;5.17;;;13.70;99.90;;;;;;5071187;28;20669;-87
2021/05/13 07:12:13;;;;;;;5.77;5.20;;;13.90;99.90;;;;;;5070472;28;20620;-88
2021/05/13 07:14:40;;;;;;;7.20;5.97;;;13.90;99.90;;;;;;5074372;28;20709;-88
2021/05/13 07:17:07;;;;;;;4.93;4.43;;;13.90;99.90;;;;;;5071907;28;20615;-87
2021/05/13 07:19:33;;;;;;;6.20;5.70;;;14.10;99.90;;;;;;5078725;28;20673;-87
2021/05/13 07:22:01;;;;;;;4.87;4.47;;;14.20;99.90;;;;;;5072855;28;21086;-89
2021/05/13 07:24:29;;;;;;;6.47;5.87;;;14.20;99.90;;;;;;5070978;28;21136;-88
2021/05/13 07:26:55;;;;;;;7.03;4.90;;;14.20;99.90;;;;;;5066458;28;20648;-89
2021/05/13 07:29:21;;;;;;;6.30;4.60;;;14.30;99.90;;;;;;5063990;28;20669;-88
2021/05/13 07:31:48;;;;;;;4.90;4.40;;;14.30;99.90;;;;;;5070514;28;20613;-88
2021/05/13 07:34:17;;;;;;;4.07;3.73;;;14.30;99.90;;;;;;5073010;28;21202;-89
2021/05/13 07:36:44;;;;;;;4.87;4.43;;;14.40;99.90;;;;;;5067596;28;20648;-87
2021/05/13 07:39:11;;;;;;;6.90;4.30;;;14.60;99.90;;;;;;5067990;28;20621;-88
2021/05/13 07:41:37;;;;;;;4.50;3.90;;;14.80;99.90;;;;;;5069967;28;20663;-89
2021/05/13 07:44:06;;;;;;;4.83;4.43;;;14.70;99.90;;;;;;5066575;28;20652;-87
2021/05/13 07:46:37;;;;;;;5.80;3.80;;;14.90;99.90;;;;;;5066677;28;20672;-87
2021/05/13 07:49:04;;;;;;;6.80;3.23;;;15.00;99.90;;;;;;5070503;28;20645;-88
2021/05/13 07:51:32;;;;;;;6.40;4.30;;;15.10;99.90;;;;;;5068746;28;20643;-88
2021/05/13 07:53:59;;;;;;;5.40;4.20;;;15.30;99.90;;;;;;5066992;28;20633;-89
2021/05/13 07:56:25;;;;;;;3.80;3.50;;;15.30;99.90;;;;;;5066432;28;20675;-88
2021/05/13 07:58:53;;;;;;;3.50;3.23;;;15.20;99.90;;;;;;5066799;28;20641;-88
2021/05/13 08:01:19;;;;;;;4.87;3.50;;;15.30;99.90;;;;;;5068993;28;20640;-88
2021/05/13 08:03:46;;;;;;;5.37;3.07;;;15.40;99.90;;;;;;5064075;28;21328;-89
2021/05/13 08:06:13;;;;;;;3.20;3.00;;;15.50;99.90;;;;;;5064207;28;20648;-88
2021/05/13 08:08:41;;;;;;;5.10;3.80;;;15.50;99.90;;;;;;5064375;28;20653;-88
2021/05/13 08:11:07;;;;;;;3.30;3.00;;;15.70;99.90;;;;;;5066712;28;20773;-89
2021/05/13 08:13:35;;;;;;;2.40;2.00;;;15.90;99.90;;;;;;5063127;28;20633;-89
2021/05/13 08:16:03;;;;;;;2.40;2.07;;;15.90;99.90;;;;;;5057072;28;21047;-89
2021/05/13 08:18:29;;;;;;;4.60;2.10;;;16.30;99.90;;;;;;5060511;28;20630;-87
2021/05/13 08:20:55;;;;;;;3.40;2.30;;;16.30;99.90;;;;;;5063471;28;20629;-86
2021/05/13 08:23:22;;;;;;;3.37;2.37;;;16.60;99.90;;;;;;5057685;28;20650;-86
2021/05/13 08:25:49;;;;;;;2.90;2.70;;;16.60;99.90;;;;;;5058476;28;20645;-88
2021/05/13 08:28:16;;;;;;;3.40;3.00;;;16.70;99.90;;;;;;5058937;28;20657;-86
2021/05/13 08:30:43;;;;;;;2.80;2.00;;;16.60;99.90;;;;;;5061537;28;20637;-86
2021/05/13 08:33:09;;;;;;;5.57;2.80;;;16.70;99.90;;;;;;5058972;28;20626;-88
2021/05/13 08:35:37;;;;;;;2.33;2.13;;;16.70;99.90;;;;;;5062434;28;20649;-87
2021/05/13 08:38:04;;;;;;;2.60;1.53;;;16.70;99.90;;;;;;5058965;28;21222;-88
2021/05/13 08:40:46;;;;;;;2.00;1.73;;;16.80;99.50;;;;;;5062053;28;20632;-88
2021/05/13 08:46:16;;;;;;;3.63;2.17;;;17.60;99.90;;;;;;5097319;27;21324;-87
2021/05/13 08:48:46;;;;;;;2.53;1.90;;;17.60;98.90;;;;;;5081728;28;20617;-88
2021/05/13 08:51:12;;;;;;;2.57;2.27;;;17.70;98.70;;;;;;5081990;28;20655;-87
2021/05/13 08:53:49;;;;;;;3.03;2.10;;;18.10;98.90;;;;;;5081440;28;20613;-87
2021/05/13 08:56:18;;;;;;;2.70;2.00;;;17.80;98.90;;;;;;5085502;28;20628;-87
2021/05/13 08:58:44;;;;;;;4.67;1.63;;;17.70;98.20;;;;;;5082335;28;20678;-88
2021/05/13 09:01:20;;;;;;;2.10;1.90;;;18.30;98.60;;;;;;5084574;28;20625;-87
2021/05/13 09:03:48;;;;;;;2.33;1.80;;;18.30;99.00;;;;;;5085718;28;20989;-87
2021/05/13 09:06:26;;;;;;;1.87;1.77;;;18.20;96.80;;;;;;5083259;28;21086;-86
2021/05/13 09:08:53;;;;;;;5.27;1.47;;;18.00;95.30;;;;;;5082787;28;20627;-87
2021/05/13 09:11:30;;;;;;;2.87;1.60;;;17.80;95.60;;;;;;5081206;28;20656;-87
2021/05/13 09:14:01;;;;;;;4.27;2.10;;;17.40;97.00;;;;;;5085587;28;20640;-86
2021/05/13 09:16:35;;;;;;;4.03;1.33;;;17.50;98.60;;;;;;5080166;28;20646;-88
2021/05/13 09:19:20;;;;;;;2.57;1.60;;;17.30;98.80;;;;;;5081839;28;20628;-88
2021/05/13 09:21:59;;;;;;;5.60;2.17;;;17.30;96.70;;;;;;5085220;28;20681;-86
2021/05/13 09:24:46;;;;;;;1.70;1.60;;;17.40;96.00;;;;;;5088931;28;20671;-88
2021/05/13 09:27:24;;;;;;;1.93;1.47;;;17.30;96.10;;;;;;5082386;28;20654;-87
2021/05/13 09:30:08;;;;;;;1.90;1.43;;;17.40;96.00;;;;;;5087289;28;20716;-89
2021/05/13 09:32:36;;;;;;;3.10;1.73;;;17.60;96.00;;;;;;5087648;28;20775;-88
2021/05/13 09:35:11;;;;;;;1.80;1.70;;;17.70;95.70;;;;;;5121373;27;20656;-89
2021/05/13 09:37:41;;;;;;;2.13;1.70;;;18.10;95.60;;;;;;5086795;28;20657;-87
2021/05/13 09:40:12;;;;;;;2.30;1.27;;;18.60;95.80;;;;;;5095536;28;20613;-87
2021/05/13 09:42:44;;;;;;;1.50;1.30;;;18.80;94.90;;;;;;5089903;28;20627;-88
2021/05/13 09:45:11;;;;;;;3.40;1.30;;;18.70;94.40;;;;;;5088095;28;21033;-88
2021/05/13 09:47:39;;;;;;;3.83;2.10;;;18.50;94.90;;;;;;5087626;28;20681;-87
2021/05/13 09:50:14;;;;;;;1.50;1.33;;;18.50;94.10;;;;;;5098265;28;20644;-87
2021/05/13 09:52:50;;;;;;;2.20;1.60;;;18.50;93.30;;;;;;5100386;28;20634;-87
2021/05/13 09:55:22;;;;;;;2.20;1.80;;;18.50;92.70;;;;;;5102794;28;20636;-88
2021/05/13 09:58:06;;;;;;;1.97;1.57;;;18.60;92.80;;;;;;5091547;28;20627;-87
2021/05/13 10:00:35;;;;;;;8.23;1.70;;;18.40;92.90;;;;;;5083719;28;20624;-89
2021/05/13 10:03:09;;;;;;;1.50;1.00;;;18.30;93.20;;;;;;5072975;28;20961;-88
2021/05/13 10:05:40;;;;;;;3.77;1.27;;;18.20;93.80;;;;;;5069964;28;21263;-87
2021/05/13 10:08:11;;;;;;;3.13;1.70;;;18.40;93.70;;;;;;5076135;28;20674;-88
2021/05/13 10:10:43;;;;;;;3.80;1.53;;;18.50;92.40;;;;;;5088191;28;20652;-87
2021/05/13 10:13:17;;;;;;;2.20;2.00;;;18.40;92.60;;;;;;5088445;28;20656;-88
2021/05/13 10:15:44;;;;;;;1.50;1.20;;;18.50;91.60;;;;;;5091399;28;20698;-88
2021/05/13 10:18:28;;;;;;;1.93;1.60;;;18.20;92.40;;;;;;5084200;28;20619;-87
2021/05/13 10:21:03;;;;;;;2.50;1.27;;;18.50;92.70;;;;;;5089722;28;20652;-88
2021/05/13 10:23:32;;;;;;;2.40;1.30;;;18.50;94.30;;;;;;5091074;28;20612;-89
2021/05/13 10:26:04;;;;;;;2.67;2.30;;;18.10;92.80;;;;;;5092120;28;20681;-90
2021/05/13 10:28:45;;;;;;;2.30;2.07;;;18.30;92.90;;;;;;5087993;28;20659;-89
2021/05/13 10:31:11;;;;;;;3.33;2.40;;;18.20;93.70;;;;;;5083384;28;20721;-91
2021/05/13 10:33:51;;;;;;;4.63;2.10;;;18.00;93.60;;;;;;5080930;28;20650;-90
2021/05/13 10:36:28;;;;;;;3.83;1.80;;;18.00;92.90;;;;;;5082819;28;21177;-89
2021/05/13 10:39:07;;;;;;;2.47;2.10;;;17.90;93.80;;;;;;5092725;28;20643;-88
2021/05/13 10:41:46;;;;;;;2.50;1.60;;;17.90;94.10;;;;;;5082519;28;20640;-90
2021/05/13 10:44:38;;;;;;;2.03;1.73;;;18.10;93.90;;;;;;5086693;28;20698;-90
2021/05/13 10:47:07;;;;;;;2.73;2.20;;;17.90;94.20;;;;;;5087199;28;20712;-86
2021/05/13 10:59:16;;;;;;;2.60;2.17;;;18.10;93.10;;;;;;5079011;28;20710;-89
2021/05/13 11:01:56;;;;;;;2.00;1.37;;;17.90;93.70;;;;;;5069942;28;20617;-89
2021/05/13 11:04:41;;;;;;;2.70;1.60;;;18.00;93.20;;;;;;5077755;28;20649;-89
2021/05/13 11:07:38;;;;;;;1.70;1.00;;;17.80;92.70;;;;;;5079265;28;20648;-89
2021/05/13 11:10:17;;;;;;;1.63;1.10;;;17.80;92.10;;;;;;5084741;28;21058;-89
2021/05/13 11:12:48;;;;;;;2.27;1.40;;;18.00;92.30;;;;;;5088147;28;20628;-88
2021/05/13 11:15:25;;;;;;;3.00;2.03;;;17.90;92.50;;;;;;5070599;28;20657;-90
2021/05/13 11:18:17;;;;;;;1.43;1.30;;;18.00;92.10;;;;;;5071907;28;20636;-89
2021/05/13 11:20:57;;;;;;;3.60;1.60;;;17.90;92.10;;;;;;5065875;28;20638;-89
2021/05/13 11:23:48;;;;;;;2.30;1.30;;;17.70;92.20;;;;;;5068461;28;20988;-89
2021/05/13 11:29:53;;;;;;;3.20;1.27;;;17.90;93.60;;;;;;5002706;28;20993;-88
2021/05/13 11:32:21;;;;;;;3.00;1.50;;;17.90;93.50;;;;;;5007318;28;21007;-91
2021/05/13 11:34:48;;;;;;;3.17;1.50;;;17.60;95.40;;;;;;5068349;28;20850;-90
2021/05/13 11:37:38;;;;;;;3.20;1.43;;;17.50;96.20;;;;;;5066616;28;20639;-89
2021/05/13 11:40:24;;;;;;;3.60;2.07;;;17.50;96.60;;;;;;5062906;28;20651;-88
2021/05/13 11:43:12;;;;;;;6.37;1.17;;;17.40;97.20;;;;;;5069568;28;20648;-88
2021/05/13 11:45:40;;;;;;;5.80;1.30;;;17.30;97.70;;;;;;5070320;28;20680;-89
2021/05/13 11:48:39;;;;;;;3.93;1.27;;;17.30;99.90;;;;;;5068292;28;20639;-89
2021/05/13 11:51:10;;;;;;;1.20;0.83;;;17.90;99.40;;;;;;5056327;28;21397;-89
2021/05/13 11:56:51;;;;;;;1.73;1.10;;;18.60;97.10;;;;;;5026554;28;20623;-88
2021/05/13 11:59:18;;;;;;;2.50;1.53;;;18.70;95.60;;;;;;5061867;28;20728;-91
2021/05/13 12:01:46;;;;;;;2.47;0.90;;;19.10;95.00;;;;;;5064341;28;20641;-90
2021/05/13 12:04:14;;;;;;;2.60;1.50;;;18.80;94.30;;;;;;5061810;28;21056;-88
2021/05/13 12:06:47;;;;;;;1.27;0.77;;;18.60;94.50;;;;;;5066131;28;20653;-89
2021/05/13 12:09:16;;;;;;;2.13;1.30;;;18.40;93.90;;;;;;5066901;28;20632;-89
2021/05/13 12:11:42;;;;;;;2.93;1.10;;;18.00;94.70;;;;;;5065943;28;20621;-88
2021/05/13 12:14:13;;;;;;;2.73;1.33;;;18.00;93.70;;;;;;5066968;28;20641;-88
2021/05/13 12:16:43;;;;;;;5.07;1.00;;;17.80;94.20;;;;;;5065724;28;20613;-90
2021/05/13 12:19:14;;;;;;;3.53;1.07;;;17.70;93.90;;;;;;5067910;28;20622;-88
2021/05/13 12:21:42;;;;;;;1.43;1.10;;;17.80;92.60;;;;;;5069131;28;20655;-89
2021/05/13 12:24:11;;;;;;;3.37;2.77;;;17.70;93.50;;;;;;5066664;28;20656;-88
2021/05/13 12:26:40;;;;;;;2.10;1.20;;;17.90;93.80;;;;;;5073277;28;21036;-90
2021/05/13 12:29:12;;;;;;;3.30;1.30;;;17.90;92.60;;;;;;5070676;28;20617;-88
2021/05/13 12:31:39;;;;;;;1.57;0.80;;;18.00;92.80;;;;;;5072562;28;20613;-90
2021/05/13 12:34:07;;;;;;;1.30;0.87;;;17.90;92.10;;;;;;5065946;28;20748;-88
2021/05/13 12:36:37;;;;;;;3.20;1.03;;;17.80;91.90;;;;;;5068526;28;20633;-88
2021/05/13 12:39:05;;;;;;;3.40;1.10;;;17.80;92.30;;;;;;5062412;28;20633;-90
2021/05/13 12:41:32;;;;;;;4.27;3.90;;;18.00;92.00;;;;;;5059928;28;20726;-90
2021/05/13 12:44:10;;;;;;;1.20;0.70;;;18.10;92.50;;;;;;5059811;28;20637;-88
2021/05/13 12:46:45;;;;;;;3.53;0.90;;;18.10;92.50;;;;;;5063127;28;20654;-88
2021/05/13 12:49:19;;;;;;;1.13;0.60;;;18.20;91.60;;;;;;5062756;28;20650;-89
2021/05/13 12:52:00;;;;;;;0.90;0.63;;;18.40;88.90;;;;;;5066588;28;20648;-88
2021/05/13 12:54:27;;;;;;;2.20;0.80;;;18.50;88.40;;;;;;5072647;28;21180;-88
2021/05/13 12:57:12;;;;;;;0.93;0.93;;;18.70;89.00;;;;;;5062550;28;21144;-89
2021/05/13 12:59:39;;;;;;;1.70;0.73;;;19.40;87.80;;;;;;5066260;28;20690;-89
2021/05/13 13:02:06;;;;;;;3.07;0.93;;;20.50;78.40;;;;;;5068401;28;20623;-88
2021/05/13 13:04:48;;;;;;;0.83;0.70;;;21.80;74.60;;;;;;5060962;28;20668;-89
2021/05/13 13:07:15;;;;;;;0.70;0.63;;;23.40;68.00;;;;;;5066091;28;20623;-88
2021/05/13 13:09:42;;;;;;;2.20;0.90;;;23.60;65.10;;;;;;5069867;28;20635;-88
2021/05/13 13:12:11;;;;;;;1.20;0.80;;;23.80;63.50;;;;;;5064366;28;20983;-88
2021/05/13 13:14:38;;;;;;;1.53;0.73;;;23.60;62.50;;;;;;5063563;28;20675;-89
2021/05/13 13:17:18;;;;;;;1.83;1.10;;;24.30;61.60;;;;;;5059248;28;20644;-88
2021/05/13 13:20:01;;;;;;;1.10;0.80;;;23.70;57.90;;;;;;5051073;28;20620;-88
2021/05/13 13:22:31;;;;;;;2.10;0.80;;;22.20;56.40;;;;;;5064081;28;20615;-88